sensor_id;sensor_type;location;lat;lon;timestamp;P1;durP1;ratioP1;P2;durP2;ratioP2
33786;SDS011;29742;51.540;9.358;2022-09-09T00:00:15;0.15;;;0.15;;
33786;SDS011;29742;51.540;9.358;2022-09-09T00:05:31;1.58;;;0.30;;
33786;SDS011;29742;51.540;9.358;2022-09-09T00:10:36;2.05;;;0.20;;
33786;SDS011;29742;51.540;9.358;2022-09-09T00:20:52;1.05;;;0.57;;
33786;SDS011;29742;51.540;9.358;2022-09-09T00:26:02;0.98;;;0.17;;
33786;SDS011;29742;51.540;9.358;2022-09-09T00:31:09;2.85;;;0.47;;
33786;SDS011;29742;51.540;9.358;2022-09-09T00:36:15;0.50;;;0.20;;
33786;SDS011;29742;51.540;9.358;2022-09-09T00:46:32;2.42;;;0.47;;
33786;SDS011;29742;51.540;9.358;2022-09-09T00:57:13;3.30;;;0.40;;
33786;SDS011;29742;51.540;9.358;2022-09-09T01:02:17;2.47;;;0.75;;
33786;SDS011;29742;51.540;9.358;2022-09-09T01:07:22;1.73;;;0.30;;
33786;SDS011;29742;51.540;9.358;2022-09-09T01:12:33;0.47;;;0.25;;
33786;SDS011;29742;51.540;9.358;2022-09-09T01:17:50;0.25;;;0.20;;
33786;SDS011;29742;51.540;9.358;2022-09-09T01:23:09;0.43;;;0.22;;
33786;SDS011;29742;51.540;9.358;2022-09-09T01:28:14;0.57;;;0.20;;
33786;SDS011;29742;51.540;9.358;2022-09-09T01:33:17;3.07;;;0.30;;
33786;SDS011;29742;51.540;9.358;2022-09-09T01:38:18;0.43;;;0.30;;
33786;SDS011;29742;51.540;9.358;2022-09-09T01:43:22;0.25;;;0.20;;
33786;SDS011;29742;51.540;9.358;2022-09-09T01:48:24;1.60;;;0.40;;
33786;SDS011;29742;51.540;9.358;2022-09-09T01:53:25;1.55;;;0.40;;
33786;SDS011;29742;51.540;9.358;2022-09-09T02:03:47;0.52;;;0.30;;
33786;SDS011;29742;51.540;9.358;2022-09-09T02:08:53;0.88;;;0.20;;
33786;SDS011;29742;51.540;9.358;2022-09-09T02:14:30;0.52;;;0.38;;
33786;SDS011;29742;51.540;9.358;2022-09-09T02:19:23;0.30;;;0.20;;
33786;SDS011;29742;51.540;9.358;2022-09-09T02:24:26;0.75;;;0.30;;
33786;SDS011;29742;51.540;9.358;2022-09-09T02:29:30;0.10;;;0.10;;
33786;SDS011;29742;51.540;9.358;2022-09-09T02:34:33;4.47;;;0.30;;
33786;SDS011;29742;51.540;9.358;2022-09-09T02:39:36;0.73;;;0.25;;
33786;SDS011;29742;51.540;9.358;2022-09-09T02:44:37;0.40;;;0.30;;
33786;SDS011;29742;51.540;9.358;2022-09-09T02:49:48;1.95;;;0.10;;
33786;SDS011;29742;51.540;9.358;2022-09-09T02:54:57;0.82;;;0.50;;
33786;SDS011;29742;51.540;9.358;2022-09-09T03:00:00;0.82;;;0.40;;
33786;SDS011;29742;51.540;9.358;2022-09-09T03:05:02;0.40;;;0.20;;
33786;SDS011;29742;51.540;9.358;2022-09-09T03:10:03;0.30;;;0.20;;
33786;SDS011;29742;51.540;9.358;2022-09-09T03:15:05;0.43;;;0.28;;
33786;SDS011;29742;51.540;9.358;2022-09-09T03:20:06;1.15;;;0.50;;
33786;SDS011;29742;51.540;9.358;2022-09-09T03:25:08;0.47;;;0.30;;
33786;SDS011;29742;51.540;9.358;2022-09-09T03:30:09;2.03;;;0.30;;
33786;SDS011;29742;51.540;9.358;2022-09-09T03:35:10;0.52;;;0.30;;
33786;SDS011;29742;51.540;9.358;2022-09-09T03:40:11;2.65;;;0.40;;
33786;SDS011;29742;51.540;9.358;2022-09-09T03:45:13;0.50;;;0.30;;
33786;SDS011;29742;51.540;9.358;2022-09-09T03:50:14;1.90;;;0.40;;
33786;SDS011;29742;51.540;9.358;2022-09-09T03:55:15;1.23;;;0.30;;
33786;SDS011;29742;51.540;9.358;2022-09-09T04:00:16;0.43;;;0.30;;
33786;SDS011;29742;51.540;9.358;2022-09-09T04:05:17;1.05;;;0.28;;
33786;SDS011;29742;51.540;9.358;2022-09-09T04:10:18;1.58;;;0.30;;
33786;SDS011;29742;51.540;9.358;2022-09-09T04:15:20;1.20;;;0.50;;
33786;SDS011;29742;51.540;9.358;2022-09-09T04:20:22;0.75;;;0.45;;
33786;SDS011;29742;51.540;9.358;2022-09-09T04:25:23;0.98;;;0.40;;
33786;SDS011;29742;51.540;9.358;2022-09-09T04:30:24;1.10;;;0.35;;
33786;SDS011;29742;51.540;9.358;2022-09-09T04:35:25;0.63;;;0.30;;
33786;SDS011;29742;51.540;9.358;2022-09-09T04:40:27;1.48;;;0.40;;
33786;SDS011;29742;51.540;9.358;2022-09-09T04:45:28;1.05;;;0.40;;
33786;SDS011;29742;51.540;9.358;2022-09-09T04:50:29;2.08;;;0.60;;
33786;SDS011;29742;51.540;9.358;2022-09-09T04:55:30;0.52;;;0.20;;
33786;SDS011;29742;51.540;9.358;2022-09-09T05:00:31;0.30;;;0.20;;
33786;SDS011;29742;51.540;9.358;2022-09-09T05:05:32;0.68;;;0.30;;
33786;SDS011;29742;51.540;9.358;2022-09-09T05:15:37;0.28;;;0.28;;
33786;SDS011;29742;51.540;9.358;2022-09-09T05:20:38;1.02;;;0.30;;
33786;SDS011;29742;51.540;9.358;2022-09-09T05:25:39;0.98;;;0.30;;
33786;SDS011;29742;51.540;9.358;2022-09-09T05:30:41;0.68;;;0.30;;
33786;SDS011;29742;51.540;9.358;2022-09-09T05:35:42;0.75;;;0.30;;
33786;SDS011;29742;51.540;9.358;2022-09-09T05:40:49;1.10;;;0.40;;
33786;SDS011;29742;51.540;9.358;2022-09-09T05:51:04;0.50;;;0.30;;
33786;SDS011;29742;51.540;9.358;2022-09-09T05:56:10;0.60;;;0.40;;
33786;SDS011;29742;51.540;9.358;2022-09-09T06:01:13;0.63;;;0.22;;
33786;SDS011;29742;51.540;9.358;2022-09-09T06:06:24;1.35;;;0.57;;
33786;SDS011;29742;51.540;9.358;2022-09-09T06:11:29;1.02;;;0.38;;
33786;SDS011;29742;51.540;9.358;2022-09-09T06:16:36;0.20;;;0.20;;
33786;SDS011;29742;51.540;9.358;2022-09-09T06:21:43;0.82;;;0.30;;
33786;SDS011;29742;51.540;9.358;2022-09-09T06:26:44;0.57;;;0.30;;
33786;SDS011;29742;51.540;9.358;2022-09-09T06:31:45;1.92;;;0.40;;
33786;SDS011;29742;51.540;9.358;2022-09-09T06:36:47;0.65;;;0.20;;
33786;SDS011;29742;51.540;9.358;2022-09-09T06:41:48;0.68;;;0.35;;
33786;SDS011;29742;51.540;9.358;2022-09-09T06:46:52;1.13;;;0.45;;
33786;SDS011;29742;51.540;9.358;2022-09-09T06:51:53;0.63;;;0.40;;
33786;SDS011;29742;51.540;9.358;2022-09-09T06:56:54;0.45;;;0.32;;
33786;SDS011;29742;51.540;9.358;2022-09-09T07:01:55;2.50;;;0.50;;
33786;SDS011;29742;51.540;9.358;2022-09-09T07:06:56;0.57;;;0.30;;
33786;SDS011;29742;51.540;9.358;2022-09-09T07:11:58;0.77;;;0.45;;
33786;SDS011;29742;51.540;9.358;2022-09-09T07:17:00;0.80;;;0.40;;
33786;SDS011;29742;51.540;9.358;2022-09-09T07:22:01;0.65;;;0.40;;
33786;SDS011;29742;51.540;9.358;2022-09-09T07:27:03;0.93;;;0.45;;
33786;SDS011;29742;51.540;9.358;2022-09-09T07:32:05;8.82;;;2.03;;
33786;SDS011;29742;51.540;9.358;2022-09-09T07:37:06;2.25;;;0.88;;
33786;SDS011;29742;51.540;9.358;2022-09-09T07:42:09;2.35;;;0.90;;
33786;SDS011;29742;51.540;9.358;2022-09-09T07:47:11;1.88;;;0.80;;
33786;SDS011;29742;51.540;9.358;2022-09-09T07:52:12;3.83;;;0.80;;
33786;SDS011;29742;51.540;9.358;2022-09-09T07:57:13;4.93;;;0.90;;
33786;SDS011;29742;51.540;9.358;2022-09-09T08:02:15;3.17;;;0.85;;
33786;SDS011;29742;51.540;9.358;2022-09-09T08:07:16;2.72;;;0.88;;
33786;SDS011;29742;51.540;9.358;2022-09-09T08:12:17;2.60;;;0.90;;
33786;SDS011;29742;51.540;9.358;2022-09-09T08:17:18;9.10;;;1.58;;
33786;SDS011;29742;51.540;9.358;2022-09-09T08:22:19;5.50;;;1.35;;
33786;SDS011;29742;51.540;9.358;2022-09-09T08:27:21;2.75;;;1.10;;
33786;SDS011;29742;51.540;9.358;2022-09-09T08:32:22;2.92;;;1.00;;
33786;SDS011;29742;51.540;9.358;2022-09-09T08:37:23;6.75;;;1.25;;
33786;SDS011;29742;51.540;9.358;2022-09-09T08:47:34;6.15;;;1.83;;
33786;SDS011;29742;51.540;9.358;2022-09-09T08:57:42;8.10;;;1.20;;
33786;SDS011;29742;51.540;9.358;2022-09-09T09:13:18;7.25;;;1.95;;
33786;SDS011;29742;51.540;9.358;2022-09-09T09:18:24;5.50;;;1.10;;
33786;SDS011;29742;51.540;9.358;2022-09-09T09:23:25;2.83;;;1.20;;
33786;SDS011;29742;51.540;9.358;2022-09-09T09:28:27;4.35;;;1.45;;
33786;SDS011;29742;51.540;9.358;2022-09-09T09:38:33;4.40;;;1.33;;
33786;SDS011;29742;51.540;9.358;2022-09-09T09:43:35;2.65;;;1.05;;
33786;SDS011;29742;51.540;9.358;2022-09-09T09:48:37;4.03;;;0.98;;
33786;SDS011;29742;51.540;9.358;2022-09-09T09:53:38;4.88;;;1.13;;
33786;SDS011;29742;51.540;9.358;2022-09-09T10:03:50;7.18;;;1.55;;
33786;SDS011;29742;51.540;9.358;2022-09-09T10:08:52;8.02;;;1.30;;
33786;SDS011;29742;51.540;9.358;2022-09-09T10:19:16;8.18;;;1.30;;
33786;SDS011;29742;51.540;9.358;2022-09-09T10:29:39;5.97;;;1.45;;
33786;SDS011;29742;51.540;9.358;2022-09-09T10:35:08;7.20;;;1.20;;
33786;SDS011;29742;51.540;9.358;2022-09-09T10:45:28;8.65;;;1.70;;
33786;SDS011;29742;51.540;9.358;2022-09-09T10:55:56;3.03;;;0.80;;
33786;SDS011;29742;51.540;9.358;2022-09-09T11:01:01;7.45;;;1.17;;
33786;SDS011;29742;51.540;9.358;2022-09-09T11:11:21;4.05;;;1.20;;
33786;SDS011;29742;51.540;9.358;2022-09-09T11:21:28;5.78;;;1.08;;
33786;SDS011;29742;51.540;9.358;2022-09-09T11:26:36;3.35;;;1.23;;
33786;SDS011;29742;51.540;9.358;2022-09-09T11:36:56;3.03;;;0.75;;
33786;SDS011;29742;51.540;9.358;2022-09-09T11:42:07;3.35;;;1.10;;
33786;SDS011;29742;51.540;9.358;2022-09-09T11:47:22;1.13;;;0.52;;
33786;SDS011;29742;51.540;9.358;2022-09-09T11:52:36;2.25;;;0.80;;
33786;SDS011;29742;51.540;9.358;2022-09-09T11:57:39;3.20;;;0.70;;
33786;SDS011;29742;51.540;9.358;2022-09-09T12:02:47;2.55;;;0.88;;
33786;SDS011;29742;51.540;9.358;2022-09-09T12:07:54;5.60;;;0.90;;
33786;SDS011;29742;51.540;9.358;2022-09-09T12:13:17;3.30;;;1.02;;
33786;SDS011;29742;51.540;9.358;2022-09-09T12:18:23;2.05;;;0.60;;
33786;SDS011;29742;51.540;9.358;2022-09-09T12:23:36;5.10;;;1.08;;
33786;SDS011;29742;51.540;9.358;2022-09-09T12:29:00;4.15;;;0.98;;
33786;SDS011;29742;51.540;9.358;2022-09-09T12:34:09;6.13;;;1.20;;
33786;SDS011;29742;51.540;9.358;2022-09-09T12:39:19;6.63;;;0.95;;
33786;SDS011;29742;51.540;9.358;2022-09-09T12:44:23;1.45;;;0.70;;
33786;SDS011;29742;51.540;9.358;2022-09-09T12:54:26;2.63;;;0.95;;
33786;SDS011;29742;51.540;9.358;2022-09-09T12:59:35;3.33;;;0.75;;
33786;SDS011;29742;51.540;9.358;2022-09-09T13:04:37;2.83;;;0.95;;
33786;SDS011;29742;51.540;9.358;2022-09-09T13:09:38;1.52;;;0.70;;
33786;SDS011;29742;51.540;9.358;2022-09-09T13:14:39;3.15;;;0.95;;
33786;SDS011;29742;51.540;9.358;2022-09-09T13:19:44;4.47;;;1.10;;
33786;SDS011;29742;51.540;9.358;2022-09-09T13:24:46;1.65;;;0.68;;
33786;SDS011;29742;51.540;9.358;2022-09-09T13:29:51;3.65;;;0.73;;
33786;SDS011;29742;51.540;9.358;2022-09-09T13:34:55;4.75;;;0.88;;
33786;SDS011;29742;51.540;9.358;2022-09-09T13:39:57;2.50;;;1.35;;
33786;SDS011;29742;51.540;9.358;2022-09-09T13:44:58;2.15;;;0.95;;
33786;SDS011;29742;51.540;9.358;2022-09-09T13:50:18;3.30;;;0.70;;
33786;SDS011;29742;51.540;9.358;2022-09-09T13:55:21;2.30;;;0.90;;
33786;SDS011;29742;51.540;9.358;2022-09-09T14:00:23;1.13;;;0.60;;
33786;SDS011;29742;51.540;9.358;2022-09-09T14:05:24;2.55;;;0.60;;
33786;SDS011;29742;51.540;9.358;2022-09-09T14:10:25;2.08;;;0.60;;
33786;SDS011;29742;51.540;9.358;2022-09-09T14:15:26;2.15;;;0.98;;
33786;SDS011;29742;51.540;9.358;2022-09-09T14:20:27;5.45;;;0.98;;
33786;SDS011;29742;51.540;9.358;2022-09-09T14:25:28;2.15;;;0.70;;
33786;SDS011;29742;51.540;9.358;2022-09-09T14:30:28;4.45;;;1.10;;
33786;SDS011;29742;51.540;9.358;2022-09-09T14:35:29;2.75;;;0.77;;
33786;SDS011;29742;51.540;9.358;2022-09-09T14:40:30;2.50;;;0.82;;
33786;SDS011;29742;51.540;9.358;2022-09-09T14:45:31;2.90;;;0.70;;
33786;SDS011;29742;51.540;9.358;2022-09-09T14:50:33;1.85;;;0.68;;
33786;SDS011;29742;51.540;9.358;2022-09-09T14:55:35;6.32;;;0.70;;
33786;SDS011;29742;51.540;9.358;2022-09-09T15:00:36;1.95;;;0.70;;
33786;SDS011;29742;51.540;9.358;2022-09-09T15:05:37;2.13;;;0.90;;
33786;SDS011;29742;51.540;9.358;2022-09-09T15:10:38;3.70;;;0.55;;
33786;SDS011;29742;51.540;9.358;2022-09-09T15:15:39;2.33;;;0.30;;
33786;SDS011;29742;51.540;9.358;2022-09-09T15:20:44;6.18;;;1.23;;
33786;SDS011;29742;51.540;9.358;2022-09-09T15:25:50;2.20;;;0.60;;
33786;SDS011;29742;51.540;9.358;2022-09-09T15:30:52;5.13;;;0.95;;
33786;SDS011;29742;51.540;9.358;2022-09-09T15:35:53;2.80;;;0.60;;
33786;SDS011;29742;51.540;9.358;2022-09-09T15:40:55;4.03;;;0.88;;
33786;SDS011;29742;51.540;9.358;2022-09-09T15:45:58;4.05;;;0.90;;
33786;SDS011;29742;51.540;9.358;2022-09-09T15:51:03;3.87;;;0.87;;
33786;SDS011;29742;51.540;9.358;2022-09-09T15:56:05;3.03;;;0.70;;
33786;SDS011;29742;51.540;9.358;2022-09-09T16:01:07;2.90;;;1.17;;
33786;SDS011;29742;51.540;9.358;2022-09-09T16:06:09;1.85;;;0.60;;
33786;SDS011;29742;51.540;9.358;2022-09-09T16:16:13;6.88;;;2.92;;
33786;SDS011;29742;51.540;9.358;2022-09-09T16:21:21;7.97;;;2.20;;
33786;SDS011;29742;51.540;9.358;2022-09-09T16:26:24;6.38;;;2.45;;
33786;SDS011;29742;51.540;9.358;2022-09-09T16:31:25;9.40;;;2.17;;
33786;SDS011;29742;51.540;9.358;2022-09-09T16:36:34;4.00;;;0.90;;
33786;SDS011;29742;51.540;9.358;2022-09-09T16:41:35;4.97;;;0.82;;
33786;SDS011;29742;51.540;9.358;2022-09-09T16:46:37;4.80;;;1.25;;
33786;SDS011;29742;51.540;9.358;2022-09-09T16:51:40;1.55;;;1.02;;
33786;SDS011;29742;51.540;9.358;2022-09-09T16:56:42;3.08;;;0.82;;
33786;SDS011;29742;51.540;9.358;2022-09-09T17:01:44;6.18;;;1.65;;
33786;SDS011;29742;51.540;9.358;2022-09-09T17:06:48;2.85;;;0.95;;
33786;SDS011;29742;51.540;9.358;2022-09-09T17:11:49;1.77;;;0.90;;
33786;SDS011;29742;51.540;9.358;2022-09-09T17:16:51;4.22;;;0.82;;
33786;SDS011;29742;51.540;9.358;2022-09-09T17:21:52;2.95;;;1.02;;
33786;SDS011;29742;51.540;9.358;2022-09-09T17:26:54;4.72;;;1.02;;
33786;SDS011;29742;51.540;9.358;2022-09-09T17:31:55;4.55;;;1.10;;
33786;SDS011;29742;51.540;9.358;2022-09-09T17:36:56;2.47;;;0.90;;
33786;SDS011;29742;51.540;9.358;2022-09-09T17:41:57;6.40;;;0.80;;
33786;SDS011;29742;51.540;9.358;2022-09-09T17:46:58;5.30;;;1.02;;
33786;SDS011;29742;51.540;9.358;2022-09-09T17:51:59;6.32;;;1.50;;
33786;SDS011;29742;51.540;9.358;2022-09-09T17:57:00;2.50;;;0.70;;
33786;SDS011;29742;51.540;9.358;2022-09-09T18:02:01;10.38;;;1.15;;
33786;SDS011;29742;51.540;9.358;2022-09-09T18:07:04;12.77;;;2.35;;
33786;SDS011;29742;51.540;9.358;2022-09-09T18:12:05;5.47;;;0.82;;
33786;SDS011;29742;51.540;9.358;2022-09-09T18:17:06;2.10;;;0.70;;
33786;SDS011;29742;51.540;9.358;2022-09-09T18:22:08;9.52;;;0.95;;
33786;SDS011;29742;51.540;9.358;2022-09-09T18:27:09;4.13;;;0.60;;
33786;SDS011;29742;51.540;9.358;2022-09-09T18:32:09;0.70;;;0.40;;
33786;SDS011;29742;51.540;9.358;2022-09-09T18:37:12;1.15;;;0.40;;
33786;SDS011;29742;51.540;9.358;2022-09-09T18:42:13;4.28;;;0.50;;
33786;SDS011;29742;51.540;9.358;2022-09-09T18:47:14;3.80;;;0.40;;
33786;SDS011;29742;51.540;9.358;2022-09-09T18:52:16;5.90;;;0.45;;
33786;SDS011;29742;51.540;9.358;2022-09-09T18:57:17;1.33;;;0.40;;
33786;SDS011;29742;51.540;9.358;2022-09-09T19:02:19;3.17;;;0.55;;
33786;SDS011;29742;51.540;9.358;2022-09-09T19:07:20;1.23;;;0.32;;
33786;SDS011;29742;51.540;9.358;2022-09-09T19:12:21;1.83;;;0.60;;
33786;SDS011;29742;51.540;9.358;2022-09-09T19:17:22;2.05;;;0.57;;
33786;SDS011;29742;51.540;9.358;2022-09-09T19:22:25;1.67;;;0.40;;
33786;SDS011;29742;51.540;9.358;2022-09-09T19:27:26;2.30;;;0.65;;
33786;SDS011;29742;51.540;9.358;2022-09-09T19:32:27;7.30;;;0.77;;
33786;SDS011;29742;51.540;9.358;2022-09-09T19:37:28;6.78;;;0.70;;
33786;SDS011;29742;51.540;9.358;2022-09-09T19:42:29;2.22;;;0.70;;
33786;SDS011;29742;51.540;9.358;2022-09-09T19:47:31;2.45;;;0.60;;
33786;SDS011;29742;51.540;9.358;2022-09-09T19:52:33;2.38;;;0.55;;
33786;SDS011;29742;51.540;9.358;2022-09-09T19:57:34;1.08;;;0.40;;
33786;SDS011;29742;51.540;9.358;2022-09-09T20:02:35;1.75;;;0.30;;
33786;SDS011;29742;51.540;9.358;2022-09-09T20:07:35;3.95;;;0.77;;
33786;SDS011;29742;51.540;9.358;2022-09-09T20:12:36;1.20;;;0.50;;
33786;SDS011;29742;51.540;9.358;2022-09-09T20:17:38;3.08;;;0.57;;
33786;SDS011;29742;51.540;9.358;2022-09-09T20:22:39;2.38;;;0.60;;
33786;SDS011;29742;51.540;9.358;2022-09-09T20:27:40;2.80;;;0.40;;
33786;SDS011;29742;51.540;9.358;2022-09-09T20:32:41;3.08;;;0.60;;
33786;SDS011;29742;51.540;9.358;2022-09-09T20:37:42;0.50;;;0.30;;
33786;SDS011;29742;51.540;9.358;2022-09-09T20:42:43;2.28;;;0.40;;
33786;SDS011;29742;51.540;9.358;2022-09-09T20:47:44;3.13;;;0.60;;
33786;SDS011;29742;51.540;9.358;2022-09-09T20:52:45;1.10;;;0.50;;
33786;SDS011;29742;51.540;9.358;2022-09-09T20:57:46;4.55;;;0.60;;
33786;SDS011;29742;51.540;9.358;2022-09-09T21:02:47;2.83;;;0.70;;
33786;SDS011;29742;51.540;9.358;2022-09-09T21:07:49;4.00;;;0.40;;
33786;SDS011;29742;51.540;9.358;2022-09-09T21:12:49;5.07;;;0.80;;
33786;SDS011;29742;51.540;9.358;2022-09-09T21:17:50;1.27;;;0.45;;
33786;SDS011;29742;51.540;9.358;2022-09-09T21:22:53;3.55;;;0.68;;
33786;SDS011;29742;51.540;9.358;2022-09-09T21:27:54;1.48;;;0.50;;
33786;SDS011;29742;51.540;9.358;2022-09-09T21:32:55;2.72;;;0.65;;
33786;SDS011;29742;51.540;9.358;2022-09-09T21:37:56;1.77;;;1.10;;
33786;SDS011;29742;51.540;9.358;2022-09-09T21:42:57;1.52;;;0.45;;
33786;SDS011;29742;51.540;9.358;2022-09-09T21:47:58;5.05;;;0.40;;
33786;SDS011;29742;51.540;9.358;2022-09-09T21:52:59;1.10;;;0.45;;
33786;SDS011;29742;51.540;9.358;2022-09-09T21:58:00;1.40;;;0.45;;
33786;SDS011;29742;51.540;9.358;2022-09-09T22:03:01;5.70;;;0.73;;
33786;SDS011;29742;51.540;9.358;2022-09-09T22:08:02;1.20;;;0.40;;
33786;SDS011;29742;51.540;9.358;2022-09-09T22:13:03;1.95;;;0.40;;
33786;SDS011;29742;51.540;9.358;2022-09-09T22:18:04;2.70;;;0.43;;
33786;SDS011;29742;51.540;9.358;2022-09-09T22:23:06;3.22;;;0.40;;
33786;SDS011;29742;51.540;9.358;2022-09-09T22:28:07;0.73;;;0.28;;
33786;SDS011;29742;51.540;9.358;2022-09-09T22:33:09;0.98;;;0.30;;
33786;SDS011;29742;51.540;9.358;2022-09-09T22:38:11;2.08;;;0.40;;
33786;SDS011;29742;51.540;9.358;2022-09-09T22:43:13;0.30;;;0.30;;
33786;SDS011;29742;51.540;9.358;2022-09-09T22:48:14;1.52;;;0.40;;
33786;SDS011;29742;51.540;9.358;2022-09-09T22:53:16;0.88;;;0.20;;
33786;SDS011;29742;51.540;9.358;2022-09-09T22:58:17;0.63;;;0.20;;
33786;SDS011;29742;51.540;9.358;2022-09-09T23:03:21;2.08;;;0.50;;
33786;SDS011;29742;51.540;9.358;2022-09-09T23:08:23;0.68;;;0.15;;
33786;SDS011;29742;51.540;9.358;2022-09-09T23:13:24;0.60;;;0.20;;
33786;SDS011;29742;51.540;9.358;2022-09-09T23:18:25;1.48;;;0.30;;
33786;SDS011;29742;51.540;9.358;2022-09-09T23:23:26;0.73;;;0.40;;
33786;SDS011;29742;51.540;9.358;2022-09-09T23:28:28;1.40;;;0.20;;
33786;SDS011;29742;51.540;9.358;2022-09-09T23:33:30;0.50;;;0.25;;
33786;SDS011;29742;51.540;9.358;2022-09-09T23:38:31;1.20;;;0.30;;
33786;SDS011;29742;51.540;9.358;2022-09-09T23:43:32;1.23;;;0.35;;
33786;SDS011;29742;51.540;9.358;2022-09-09T23:48:35;2.85;;;0.40;;
33786;SDS011;29742;51.540;9.358;2022-09-09T23:53:38;0.93;;;0.20;;
33786;SDS011;29742;51.540;9.358;2022-09-09T23:58:39;0.38;;;0.22;;
